sensor_id;sensor_type;location;lat;lon;timestamp;P1;durP1;ratioP1;P2;durP2;ratioP2
36373;SDS011;22399;51.346;12.372;2024-03-02T00:01:35;43.13;;;13.93;;
36373;SDS011;22399;51.346;12.372;2024-03-02T00:04:04;54.55;;;15.52;;
36373;SDS011;22399;51.346;12.372;2024-03-02T00:06:33;41.47;;;14.05;;
36373;SDS011;22399;51.346;12.372;2024-03-02T00:09:02;45.88;;;14.07;;
36373;SDS011;22399;51.346;12.372;2024-03-02T00:11:31;53.20;;;14.73;;
36373;SDS011;22399;51.346;12.372;2024-03-02T00:14:03;45.30;;;14.07;;
36373;SDS011;22399;51.346;12.372;2024-03-02T00:16:31;60.30;;;14.25;;
36373;SDS011;22399;51.346;12.372;2024-03-02T00:19:02;56.33;;;15.40;;
36373;SDS011;22399;51.346;12.372;2024-03-02T00:21:32;50.55;;;14.00;;
36373;SDS011;22399;51.346;12.372;2024-03-02T00:24:01;50.40;;;14.10;;
36373;SDS011;22399;51.346;12.372;2024-03-02T00:26:43;56.80;;;15.23;;
36373;SDS011;22399;51.346;12.372;2024-03-02T00:29:12;50.78;;;14.73;;
36373;SDS011;22399;51.346;12.372;2024-03-02T00:31:44;53.15;;;13.43;;
36373;SDS011;22399;51.346;12.372;2024-03-02T00:34:14;46.88;;;14.35;;
36373;SDS011;22399;51.346;12.372;2024-03-02T00:36:42;45.28;;;13.90;;
36373;SDS011;22399;51.346;12.372;2024-03-02T00:39:11;49.00;;;13.38;;
36373;SDS011;22399;51.346;12.372;2024-03-02T00:41:42;44.25;;;13.77;;
36373;SDS011;22399;51.346;12.372;2024-03-02T00:44:11;49.53;;;14.85;;
36373;SDS011;22399;51.346;12.372;2024-03-02T00:46:41;49.60;;;13.88;;
36373;SDS011;22399;51.346;12.372;2024-03-02T00:49:12;50.78;;;14.13;;
36373;SDS011;22399;51.346;12.372;2024-03-02T00:51:47;49.63;;;15.52;;
36373;SDS011;22399;51.346;12.372;2024-03-02T00:54:19;48.33;;;14.55;;
36373;SDS011;22399;51.346;12.372;2024-03-02T00:56:52;54.70;;;14.95;;
36373;SDS011;22399;51.346;12.372;2024-03-02T00:59:23;53.80;;;14.13;;
36373;SDS011;22399;51.346;12.372;2024-03-02T01:01:51;54.58;;;14.88;;
36373;SDS011;22399;51.346;12.372;2024-03-02T01:04:21;41.30;;;13.13;;
36373;SDS011;22399;51.346;12.372;2024-03-02T01:06:50;57.25;;;13.80;;
36373;SDS011;22399;51.346;12.372;2024-03-02T01:09:18;52.72;;;14.40;;
36373;SDS011;22399;51.346;12.372;2024-03-02T01:11:47;64.50;;;14.50;;
36373;SDS011;22399;51.346;12.372;2024-03-02T01:14:15;50.65;;;13.65;;
36373;SDS011;22399;51.346;12.372;2024-03-02T01:16:44;48.53;;;14.18;;
36373;SDS011;22399;51.346;12.372;2024-03-02T01:19:12;49.28;;;13.00;;
36373;SDS011;22399;51.346;12.372;2024-03-02T01:21:42;43.75;;;11.45;;
36373;SDS011;22399;51.346;12.372;2024-03-02T01:24:11;55.08;;;12.95;;
36373;SDS011;22399;51.346;12.372;2024-03-02T01:26:40;48.63;;;12.85;;
36373;SDS011;22399;51.346;12.372;2024-03-02T01:29:08;50.85;;;13.95;;
36373;SDS011;22399;51.346;12.372;2024-03-02T01:31:37;38.03;;;12.32;;
36373;SDS011;22399;51.346;12.372;2024-03-02T01:34:06;42.58;;;13.25;;
36373;SDS011;22399;51.346;12.372;2024-03-02T01:36:35;49.78;;;13.75;;
36373;SDS011;22399;51.346;12.372;2024-03-02T01:39:05;46.92;;;11.90;;
36373;SDS011;22399;51.346;12.372;2024-03-02T01:41:35;42.97;;;12.32;;
36373;SDS011;22399;51.346;12.372;2024-03-02T01:44:04;50.00;;;12.00;;
36373;SDS011;22399;51.346;12.372;2024-03-02T01:46:32;42.92;;;12.45;;
36373;SDS011;22399;51.346;12.372;2024-03-02T01:49:01;46.78;;;11.85;;
36373;SDS011;22399;51.346;12.372;2024-03-02T01:51:29;37.67;;;11.73;;
36373;SDS011;22399;51.346;12.372;2024-03-02T01:53:58;46.08;;;11.95;;
36373;SDS011;22399;51.346;12.372;2024-03-02T01:56:27;38.08;;;10.82;;
36373;SDS011;22399;51.346;12.372;2024-03-02T01:58:56;34.53;;;9.40;;
36373;SDS011;22399;51.346;12.372;2024-03-02T02:01:24;32.28;;;10.15;;
36373;SDS011;22399;51.346;12.372;2024-03-02T02:03:53;42.50;;;11.25;;
36373;SDS011;22399;51.346;12.372;2024-03-02T02:06:22;32.63;;;9.70;;
36373;SDS011;22399;51.346;12.372;2024-03-02T02:08:50;31.27;;;11.07;;
36373;SDS011;22399;51.346;12.372;2024-03-02T02:11:18;36.45;;;11.68;;
36373;SDS011;22399;51.346;12.372;2024-03-02T02:13:48;40.65;;;10.50;;
36373;SDS011;22399;51.346;12.372;2024-03-02T02:16:17;33.13;;;9.75;;
36373;SDS011;22399;51.346;12.372;2024-03-02T02:18:45;41.90;;;11.50;;
36373;SDS011;22399;51.346;12.372;2024-03-02T02:21:14;33.47;;;9.63;;
36373;SDS011;22399;51.346;12.372;2024-03-02T02:23:44;35.40;;;10.45;;
36373;SDS011;22399;51.346;12.372;2024-03-02T02:26:14;26.02;;;8.30;;
36373;SDS011;22399;51.346;12.372;2024-03-02T02:28:43;30.35;;;7.93;;
36373;SDS011;22399;51.346;12.372;2024-03-02T02:31:14;41.05;;;10.82;;
36373;SDS011;22399;51.346;12.372;2024-03-02T02:33:42;39.15;;;10.90;;
36373;SDS011;22399;51.346;12.372;2024-03-02T02:36:10;31.80;;;10.00;;
36373;SDS011;22399;51.346;12.372;2024-03-02T02:38:40;34.75;;;9.10;;
36373;SDS011;22399;51.346;12.372;2024-03-02T02:41:12;31.17;;;9.00;;
36373;SDS011;22399;51.346;12.372;2024-03-02T02:43:41;25.85;;;9.10;;
36373;SDS011;22399;51.346;12.372;2024-03-02T02:46:09;30.30;;;8.63;;
36373;SDS011;22399;51.346;12.372;2024-03-02T02:48:38;27.55;;;7.63;;
36373;SDS011;22399;51.346;12.372;2024-03-02T02:51:06;31.02;;;8.30;;
36373;SDS011;22399;51.346;12.372;2024-03-02T02:53:35;30.50;;;8.75;;
36373;SDS011;22399;51.346;12.372;2024-03-02T02:56:06;39.83;;;9.52;;
36373;SDS011;22399;51.346;12.372;2024-03-02T02:58:36;25.65;;;7.18;;
36373;SDS011;22399;51.346;12.372;2024-03-02T03:01:04;32.58;;;9.05;;
36373;SDS011;22399;51.346;12.372;2024-03-02T03:03:33;21.90;;;7.95;;
36373;SDS011;22399;51.346;12.372;2024-03-02T03:06:03;34.38;;;9.73;;
36373;SDS011;22399;51.346;12.372;2024-03-02T03:08:32;31.10;;;8.77;;
36373;SDS011;22399;51.346;12.372;2024-03-02T03:11:00;27.83;;;8.88;;
36373;SDS011;22399;51.346;12.372;2024-03-02T03:13:29;39.83;;;9.38;;
36373;SDS011;22399;51.346;12.372;2024-03-02T03:15:58;34.90;;;9.45;;
36373;SDS011;22399;51.346;12.372;2024-03-02T03:18:27;36.83;;;9.93;;
36373;SDS011;22399;51.346;12.372;2024-03-02T03:20:55;37.63;;;9.20;;
36373;SDS011;22399;51.346;12.372;2024-03-02T03:23:24;38.83;;;10.70;;
36373;SDS011;22399;51.346;12.372;2024-03-02T03:25:53;34.72;;;9.30;;
36373;SDS011;22399;51.346;12.372;2024-03-02T03:28:21;28.13;;;9.75;;
36373;SDS011;22399;51.346;12.372;2024-03-02T03:30:49;23.50;;;8.40;;
36373;SDS011;22399;51.346;12.372;2024-03-02T03:33:19;35.85;;;8.82;;
36373;SDS011;22399;51.346;12.372;2024-03-02T03:35:47;43.25;;;10.63;;
36373;SDS011;22399;51.346;12.372;2024-03-02T03:38:16;37.28;;;9.25;;
36373;SDS011;22399;51.346;12.372;2024-03-02T03:40:44;48.40;;;9.27;;
36373;SDS011;22399;51.346;12.372;2024-03-02T03:43:12;43.50;;;10.60;;
36373;SDS011;22399;51.346;12.372;2024-03-02T03:45:40;30.52;;;9.55;;
36373;SDS011;22399;51.346;12.372;2024-03-02T03:48:09;30.05;;;8.43;;
36373;SDS011;22399;51.346;12.372;2024-03-02T03:50:39;30.58;;;9.10;;
36373;SDS011;22399;51.346;12.372;2024-03-02T03:53:08;30.05;;;7.90;;
36373;SDS011;22399;51.346;12.372;2024-03-02T03:55:37;32.90;;;8.32;;
36373;SDS011;22399;51.346;12.372;2024-03-02T03:58:05;32.40;;;8.60;;
36373;SDS011;22399;51.346;12.372;2024-03-02T04:00:34;26.65;;;8.20;;
36373;SDS011;22399;51.346;12.372;2024-03-02T04:03:02;30.10;;;8.45;;
36373;SDS011;22399;51.346;12.372;2024-03-02T04:05:31;27.80;;;8.35;;
36373;SDS011;22399;51.346;12.372;2024-03-02T04:08:01;30.67;;;8.60;;
36373;SDS011;22399;51.346;12.372;2024-03-02T04:10:29;31.23;;;9.23;;
36373;SDS011;22399;51.346;12.372;2024-03-02T04:12:57;28.10;;;9.27;;
36373;SDS011;22399;51.346;12.372;2024-03-02T04:15:26;30.80;;;6.93;;
36373;SDS011;22399;51.346;12.372;2024-03-02T04:17:54;32.25;;;9.05;;
36373;SDS011;22399;51.346;12.372;2024-03-02T04:20:23;26.25;;;8.00;;
36373;SDS011;22399;51.346;12.372;2024-03-02T04:22:51;35.10;;;9.98;;
36373;SDS011;22399;51.346;12.372;2024-03-02T04:25:21;34.95;;;8.63;;
36373;SDS011;22399;51.346;12.372;2024-03-02T04:27:49;28.00;;;8.75;;
36373;SDS011;22399;51.346;12.372;2024-03-02T04:30:18;28.92;;;8.68;;
36373;SDS011;22399;51.346;12.372;2024-03-02T04:32:46;29.17;;;9.25;;
36373;SDS011;22399;51.346;12.372;2024-03-02T04:35:15;27.20;;;8.48;;
36373;SDS011;22399;51.346;12.372;2024-03-02T04:37:43;28.52;;;8.55;;
36373;SDS011;22399;51.346;12.372;2024-03-02T04:40:12;26.38;;;7.57;;
36373;SDS011;22399;51.346;12.372;2024-03-02T04:42:42;26.70;;;8.52;;
36373;SDS011;22399;51.346;12.372;2024-03-02T04:45:10;27.25;;;8.35;;
36373;SDS011;22399;51.346;12.372;2024-03-02T04:47:38;31.70;;;7.88;;
36373;SDS011;22399;51.346;12.372;2024-03-02T04:50:07;30.38;;;8.25;;
36373;SDS011;22399;51.346;12.372;2024-03-02T04:52:36;29.48;;;9.30;;
36373;SDS011;22399;51.346;12.372;2024-03-02T04:55:05;25.77;;;8.23;;
36373;SDS011;22399;51.346;12.372;2024-03-02T04:58:03;34.22;;;8.15;;
36373;SDS011;22399;51.346;12.372;2024-03-02T05:00:31;40.08;;;8.65;;
36373;SDS011;22399;51.346;12.372;2024-03-02T05:03:00;29.25;;;9.18;;
36373;SDS011;22399;51.346;12.372;2024-03-02T05:05:29;31.23;;;8.95;;
36373;SDS011;22399;51.346;12.372;2024-03-02T05:07:57;33.05;;;9.45;;
36373;SDS011;22399;51.346;12.372;2024-03-02T05:10:25;34.92;;;10.27;;
36373;SDS011;22399;51.346;12.372;2024-03-02T05:12:53;34.47;;;9.73;;
36373;SDS011;22399;51.346;12.372;2024-03-02T05:15:28;40.92;;;9.20;;
36373;SDS011;22399;51.346;12.372;2024-03-02T05:17:55;35.83;;;9.35;;
36373;SDS011;22399;51.346;12.372;2024-03-02T05:20:26;35.65;;;9.55;;
36373;SDS011;22399;51.346;12.372;2024-03-02T05:22:54;44.35;;;10.65;;
36373;SDS011;22399;51.346;12.372;2024-03-02T05:25:23;32.63;;;9.15;;
36373;SDS011;22399;51.346;12.372;2024-03-02T05:27:51;33.10;;;9.43;;
36373;SDS011;22399;51.346;12.372;2024-03-02T05:30:20;34.88;;;9.27;;
36373;SDS011;22399;51.346;12.372;2024-03-02T05:32:50;26.77;;;8.30;;
36373;SDS011;22399;51.346;12.372;2024-03-02T05:35:18;34.13;;;9.02;;
36373;SDS011;22399;51.346;12.372;2024-03-02T05:37:47;35.92;;;8.77;;
36373;SDS011;22399;51.346;12.372;2024-03-02T05:40:15;33.72;;;8.48;;
36373;SDS011;22399;51.346;12.372;2024-03-02T05:42:45;33.17;;;8.88;;
36373;SDS011;22399;51.346;12.372;2024-03-02T05:45:14;30.48;;;9.10;;
36373;SDS011;22399;51.346;12.372;2024-03-02T05:47:43;30.83;;;8.73;;
36373;SDS011;22399;51.346;12.372;2024-03-02T05:50:13;33.50;;;9.38;;
36373;SDS011;22399;51.346;12.372;2024-03-02T05:52:41;34.72;;;9.30;;
36373;SDS011;22399;51.346;12.372;2024-03-02T05:55:09;33.00;;;9.63;;
36373;SDS011;22399;51.346;12.372;2024-03-02T05:57:38;34.33;;;10.55;;
36373;SDS011;22399;51.346;12.372;2024-03-02T06:00:25;41.92;;;10.63;;
36373;SDS011;22399;51.346;12.372;2024-03-02T06:02:54;36.95;;;10.18;;
36373;SDS011;22399;51.346;12.372;2024-03-02T06:05:24;46.38;;;10.10;;
36373;SDS011;22399;51.346;12.372;2024-03-02T06:07:52;39.70;;;11.43;;
36373;SDS011;22399;51.346;12.372;2024-03-02T06:10:21;29.25;;;9.23;;
36373;SDS011;22399;51.346;12.372;2024-03-02T06:12:49;32.40;;;9.25;;
36373;SDS011;22399;51.346;12.372;2024-03-02T06:15:18;37.47;;;10.35;;
36373;SDS011;22399;51.346;12.372;2024-03-02T06:17:46;37.92;;;10.25;;
36373;SDS011;22399;51.346;12.372;2024-03-02T06:20:15;29.98;;;9.18;;
36373;SDS011;22399;51.346;12.372;2024-03-02T06:22:44;36.03;;;9.75;;
36373;SDS011;22399;51.346;12.372;2024-03-02T06:25:13;36.67;;;9.85;;
36373;SDS011;22399;51.346;12.372;2024-03-02T06:27:42;28.02;;;9.77;;
36373;SDS011;22399;51.346;12.372;2024-03-02T06:30:11;36.33;;;10.25;;
36373;SDS011;22399;51.346;12.372;2024-03-02T06:32:40;37.38;;;10.13;;
36373;SDS011;22399;51.346;12.372;2024-03-02T06:35:08;32.45;;;9.95;;
36373;SDS011;22399;51.346;12.372;2024-03-02T06:37:37;34.97;;;10.45;;
36373;SDS011;22399;51.346;12.372;2024-03-02T06:40:08;36.63;;;10.63;;
36373;SDS011;22399;51.346;12.372;2024-03-02T06:42:37;48.13;;;11.77;;
36373;SDS011;22399;51.346;12.372;2024-03-02T06:45:06;40.30;;;10.43;;
36373;SDS011;22399;51.346;12.372;2024-03-02T06:47:34;36.63;;;10.05;;
36373;SDS011;22399;51.346;12.372;2024-03-02T06:50:03;37.90;;;11.05;;
36373;SDS011;22399;51.346;12.372;2024-03-02T06:52:33;32.58;;;9.75;;
36373;SDS011;22399;51.346;12.372;2024-03-02T06:55:01;39.33;;;11.70;;
36373;SDS011;22399;51.346;12.372;2024-03-02T06:57:31;49.45;;;10.45;;
36373;SDS011;22399;51.346;12.372;2024-03-02T07:00:00;34.13;;;10.55;;
36373;SDS011;22399;51.346;12.372;2024-03-02T07:02:31;26.30;;;8.68;;
36373;SDS011;22399;51.346;12.372;2024-03-02T07:04:59;33.78;;;10.77;;
36373;SDS011;22399;51.346;12.372;2024-03-02T07:07:28;29.33;;;9.38;;
36373;SDS011;22399;51.346;12.372;2024-03-02T07:09:56;43.25;;;11.70;;
36373;SDS011;22399;51.346;12.372;2024-03-02T07:12:24;40.83;;;11.50;;
36373;SDS011;22399;51.346;12.372;2024-03-02T07:14:54;54.97;;;11.82;;
36373;SDS011;22399;51.346;12.372;2024-03-02T07:17:45;38.28;;;9.48;;
36373;SDS011;22399;51.346;12.372;2024-03-02T07:20:13;40.63;;;9.65;;
36373;SDS011;22399;51.346;12.372;2024-03-02T07:22:42;44.83;;;12.25;;
36373;SDS011;22399;51.346;12.372;2024-03-02T07:25:10;33.75;;;8.95;;
36373;SDS011;22399;51.346;12.372;2024-03-02T07:27:42;37.17;;;10.38;;
36373;SDS011;22399;51.346;12.372;2024-03-02T07:30:14;34.83;;;8.68;;
36373;SDS011;22399;51.346;12.372;2024-03-02T07:32:43;28.17;;;8.98;;
36373;SDS011;22399;51.346;12.372;2024-03-02T07:35:12;42.38;;;9.82;;
36373;SDS011;22399;51.346;12.372;2024-03-02T07:37:41;40.03;;;10.27;;
36373;SDS011;22399;51.346;12.372;2024-03-02T07:40:10;41.33;;;10.60;;
36373;SDS011;22399;51.346;12.372;2024-03-02T07:42:39;41.90;;;11.15;;
36373;SDS011;22399;51.346;12.372;2024-03-02T07:45:08;33.83;;;10.38;;
36373;SDS011;22399;51.346;12.372;2024-03-02T07:47:38;37.65;;;10.55;;
36373;SDS011;22399;51.346;12.372;2024-03-02T07:50:06;29.38;;;9.13;;
36373;SDS011;22399;51.346;12.372;2024-03-02T07:52:35;30.67;;;9.43;;
36373;SDS011;22399;51.346;12.372;2024-03-02T07:55:04;35.97;;;10.05;;
36373;SDS011;22399;51.346;12.372;2024-03-02T07:57:33;37.53;;;10.95;;
36373;SDS011;22399;51.346;12.372;2024-03-02T08:00:01;33.97;;;10.38;;
36373;SDS011;22399;51.346;12.372;2024-03-02T08:02:38;37.33;;;9.75;;
36373;SDS011;22399;51.346;12.372;2024-03-02T08:05:08;42.55;;;10.63;;
36373;SDS011;22399;51.346;12.372;2024-03-02T08:07:39;36.35;;;9.43;;
36373;SDS011;22399;51.346;12.372;2024-03-02T08:10:08;33.53;;;8.95;;
36373;SDS011;22399;51.346;12.372;2024-03-02T08:12:37;39.35;;;10.40;;
36373;SDS011;22399;51.346;12.372;2024-03-02T08:15:05;41.22;;;9.75;;
36373;SDS011;22399;51.346;12.372;2024-03-02T08:17:34;33.38;;;9.02;;
36373;SDS011;22399;51.346;12.372;2024-03-02T08:20:06;45.65;;;10.48;;
36373;SDS011;22399;51.346;12.372;2024-03-02T08:22:35;32.50;;;10.23;;
36373;SDS011;22399;51.346;12.372;2024-03-02T08:25:04;44.72;;;10.55;;
36373;SDS011;22399;51.346;12.372;2024-03-02T08:27:32;37.53;;;9.63;;
36373;SDS011;22399;51.346;12.372;2024-03-02T08:30:01;34.40;;;9.65;;
36373;SDS011;22399;51.346;12.372;2024-03-02T08:32:33;43.15;;;11.10;;
36373;SDS011;22399;51.346;12.372;2024-03-02T08:35:01;35.55;;;10.00;;
36373;SDS011;22399;51.346;12.372;2024-03-02T08:37:31;32.90;;;10.43;;
36373;SDS011;22399;51.346;12.372;2024-03-02T08:40:00;39.78;;;10.45;;
36373;SDS011;22399;51.346;12.372;2024-03-02T08:42:30;30.65;;;8.68;;
36373;SDS011;22399;51.346;12.372;2024-03-02T08:45:00;33.60;;;11.27;;
36373;SDS011;22399;51.346;12.372;2024-03-02T08:47:28;32.00;;;8.88;;
36373;SDS011;22399;51.346;12.372;2024-03-02T08:49:57;29.08;;;8.82;;
36373;SDS011;22399;51.346;12.372;2024-03-02T08:52:27;35.20;;;9.38;;
36373;SDS011;22399;51.346;12.372;2024-03-02T08:54:57;40.53;;;11.07;;
36373;SDS011;22399;51.346;12.372;2024-03-02T08:57:25;38.45;;;9.05;;
36373;SDS011;22399;51.346;12.372;2024-03-02T08:59:54;31.52;;;9.95;;
36373;SDS011;22399;51.346;12.372;2024-03-02T09:02:23;29.13;;;9.98;;
36373;SDS011;22399;51.346;12.372;2024-03-02T09:04:51;37.55;;;10.55;;
36373;SDS011;22399;51.346;12.372;2024-03-02T09:07:20;30.55;;;9.50;;
36373;SDS011;22399;51.346;12.372;2024-03-02T09:09:48;27.42;;;10.68;;
36373;SDS011;22399;51.346;12.372;2024-03-02T09:12:18;46.35;;;10.80;;
36373;SDS011;22399;51.346;12.372;2024-03-02T09:14:48;32.95;;;10.00;;
36373;SDS011;22399;51.346;12.372;2024-03-02T09:17:17;43.63;;;11.23;;
36373;SDS011;22399;51.346;12.372;2024-03-02T09:19:46;34.38;;;9.40;;
36373;SDS011;22399;51.346;12.372;2024-03-02T09:22:14;27.88;;;9.98;;
36373;SDS011;22399;51.346;12.372;2024-03-02T09:24:42;38.38;;;11.02;;
36373;SDS011;22399;51.346;12.372;2024-03-02T09:27:11;30.85;;;9.13;;
36373;SDS011;22399;51.346;12.372;2024-03-02T09:29:40;34.17;;;10.07;;
36373;SDS011;22399;51.346;12.372;2024-03-02T09:32:11;32.95;;;11.18;;
36373;SDS011;22399;51.346;12.372;2024-03-02T09:34:41;42.13;;;11.05;;
36373;SDS011;22399;51.346;12.372;2024-03-02T09:37:09;36.60;;;9.38;;
36373;SDS011;22399;51.346;12.372;2024-03-02T09:39:38;40.20;;;11.25;;
36373;SDS011;22399;51.346;12.372;2024-03-02T09:42:06;25.10;;;7.68;;
36373;SDS011;22399;51.346;12.372;2024-03-02T09:44:37;25.27;;;8.50;;
36373;SDS011;22399;51.346;12.372;2024-03-02T09:47:07;29.40;;;8.80;;
36373;SDS011;22399;51.346;12.372;2024-03-02T09:49:36;34.00;;;8.23;;
36373;SDS011;22399;51.346;12.372;2024-03-02T09:52:05;30.98;;;9.38;;
36373;SDS011;22399;51.346;12.372;2024-03-02T09:54:35;30.80;;;10.55;;
36373;SDS011;22399;51.346;12.372;2024-03-02T09:57:05;31.98;;;9.13;;
36373;SDS011;22399;51.346;12.372;2024-03-02T09:59:33;30.38;;;9.25;;
36373;SDS011;22399;51.346;12.372;2024-03-02T10:02:02;30.00;;;8.32;;
36373;SDS011;22399;51.346;12.372;2024-03-02T10:04:35;31.15;;;8.68;;
36373;SDS011;22399;51.346;12.372;2024-03-02T10:07:10;26.38;;;7.78;;
36373;SDS011;22399;51.346;12.372;2024-03-02T10:09:39;33.28;;;8.70;;
36373;SDS011;22399;51.346;12.372;2024-03-02T10:12:08;32.85;;;9.15;;
36373;SDS011;22399;51.346;12.372;2024-03-02T10:14:38;28.92;;;8.68;;
36373;SDS011;22399;51.346;12.372;2024-03-02T10:17:07;28.63;;;8.63;;
36373;SDS011;22399;51.346;12.372;2024-03-02T10:19:37;22.25;;;8.13;;
36373;SDS011;22399;51.346;12.372;2024-03-02T10:22:07;33.35;;;9.25;;
36373;SDS011;22399;51.346;12.372;2024-03-02T10:24:36;25.05;;;7.32;;
36373;SDS011;22399;51.346;12.372;2024-03-02T10:27:10;22.40;;;7.78;;
36373;SDS011;22399;51.346;12.372;2024-03-02T10:29:42;27.80;;;6.65;;
36373;SDS011;22399;51.346;12.372;2024-03-02T10:32:14;21.17;;;7.28;;
36373;SDS011;22399;51.346;12.372;2024-03-02T10:34:45;23.20;;;7.50;;
36373;SDS011;22399;51.346;12.372;2024-03-02T10:37:14;31.45;;;8.20;;
36373;SDS011;22399;51.346;12.372;2024-03-02T10:39:45;22.50;;;6.78;;
36373;SDS011;22399;51.346;12.372;2024-03-02T10:42:15;20.83;;;6.97;;
36373;SDS011;22399;51.346;12.372;2024-03-02T10:44:46;20.08;;;6.50;;
36373;SDS011;22399;51.346;12.372;2024-03-02T10:47:16;19.98;;;6.20;;
36373;SDS011;22399;51.346;12.372;2024-03-02T10:49:48;19.30;;;6.40;;
36373;SDS011;22399;51.346;12.372;2024-03-02T10:52:20;15.32;;;5.25;;
36373;SDS011;22399;51.346;12.372;2024-03-02T10:54:49;17.70;;;5.13;;
36373;SDS011;22399;51.346;12.372;2024-03-02T10:57:18;19.10;;;5.95;;
36373;SDS011;22399;51.346;12.372;2024-03-02T10:59:51;19.35;;;5.05;;
36373;SDS011;22399;51.346;12.372;2024-03-02T11:02:24;17.55;;;5.68;;
36373;SDS011;22399;51.346;12.372;2024-03-02T11:04:56;21.75;;;4.85;;
36373;SDS011;22399;51.346;12.372;2024-03-02T11:07:26;13.80;;;4.57;;
36373;SDS011;22399;51.346;12.372;2024-03-02T11:09:57;15.40;;;4.35;;
36373;SDS011;22399;51.346;12.372;2024-03-02T11:12:28;14.10;;;4.05;;
36373;SDS011;22399;51.346;12.372;2024-03-02T11:14:59;11.52;;;3.95;;
36373;SDS011;22399;51.346;12.372;2024-03-02T11:17:29;17.17;;;4.30;;
36373;SDS011;22399;51.346;12.372;2024-03-02T11:19:59;11.43;;;4.22;;
36373;SDS011;22399;51.346;12.372;2024-03-02T11:22:27;16.90;;;4.25;;
36373;SDS011;22399;51.346;12.372;2024-03-02T11:24:56;15.70;;;4.43;;
36373;SDS011;22399;51.346;12.372;2024-03-02T11:30:50;16.80;;;4.80;;
36373;SDS011;22399;51.346;12.372;2024-03-02T11:33:23;19.88;;;5.32;;
36373;SDS011;22399;51.346;12.372;2024-03-02T11:35:55;15.98;;;4.68;;
36373;SDS011;22399;51.346;12.372;2024-03-02T11:38:28;13.35;;;4.22;;
36373;SDS011;22399;51.346;12.372;2024-03-02T11:41:00;12.23;;;4.30;;
36373;SDS011;22399;51.346;12.372;2024-03-02T11:43:30;14.63;;;3.90;;
36373;SDS011;22399;51.346;12.372;2024-03-02T11:46:00;17.63;;;5.40;;
36373;SDS011;22399;51.346;12.372;2024-03-02T11:48:34;11.18;;;4.25;;
36373;SDS011;22399;51.346;12.372;2024-03-02T11:51:05;13.75;;;5.43;;
36373;SDS011;22399;51.346;12.372;2024-03-02T11:53:34;13.15;;;4.72;;
36373;SDS011;22399;51.346;12.372;2024-03-02T11:56:06;12.60;;;4.15;;
36373;SDS011;22399;51.346;12.372;2024-03-02T11:58:38;14.77;;;4.63;;
36373;SDS011;22399;51.346;12.372;2024-03-02T12:01:09;16.27;;;3.97;;
36373;SDS011;22399;51.346;12.372;2024-03-02T12:03:38;14.38;;;3.83;;
36373;SDS011;22399;51.346;12.372;2024-03-02T12:06:08;9.93;;;4.18;;
36373;SDS011;22399;51.346;12.372;2024-03-02T12:08:37;11.48;;;4.15;;
36373;SDS011;22399;51.346;12.372;2024-03-02T12:11:06;12.73;;;4.30;;
36373;SDS011;22399;51.346;12.372;2024-03-02T12:13:34;11.05;;;3.72;;
36373;SDS011;22399;51.346;12.372;2024-03-02T12:16:03;13.30;;;4.13;;
36373;SDS011;22399;51.346;12.372;2024-03-02T12:18:32;8.70;;;2.75;;
36373;SDS011;22399;51.346;12.372;2024-03-02T12:21:00;12.93;;;4.28;;
36373;SDS011;22399;51.346;12.372;2024-03-02T12:23:34;10.27;;;3.63;;
36373;SDS011;22399;51.346;12.372;2024-03-02T12:26:03;8.50;;;3.63;;
36373;SDS011;22399;51.346;12.372;2024-03-02T12:28:31;13.15;;;4.00;;
36373;SDS011;22399;51.346;12.372;2024-03-02T12:31:01;9.13;;;3.38;;
36373;SDS011;22399;51.346;12.372;2024-03-02T12:33:30;10.00;;;3.88;;
36373;SDS011;22399;51.346;12.372;2024-03-02T12:35:58;12.10;;;4.32;;
36373;SDS011;22399;51.346;12.372;2024-03-02T12:38:27;13.07;;;4.32;;
36373;SDS011;22399;51.346;12.372;2024-03-02T12:40:57;10.82;;;4.40;;
36373;SDS011;22399;51.346;12.372;2024-03-02T12:43:29;8.48;;;3.17;;
36373;SDS011;22399;51.346;12.372;2024-03-02T12:45:58;13.82;;;3.65;;
36373;SDS011;22399;51.346;12.372;2024-03-02T12:48:27;21.02;;;4.38;;
36373;SDS011;22399;51.346;12.372;2024-03-02T12:50:56;12.52;;;4.18;;
36373;SDS011;22399;51.346;12.372;2024-03-02T12:53:24;8.63;;;3.22;;
36373;SDS011;22399;51.346;12.372;2024-03-02T12:55:52;13.05;;;3.45;;
36373;SDS011;22399;51.346;12.372;2024-03-02T12:58:23;15.93;;;3.28;;
36373;SDS011;22399;51.346;12.372;2024-03-02T13:01:05;17.77;;;3.50;;
36373;SDS011;22399;51.346;12.372;2024-03-02T13:03:36;10.70;;;3.30;;
36373;SDS011;22399;51.346;12.372;2024-03-02T13:06:05;21.25;;;3.78;;
36373;SDS011;22399;51.346;12.372;2024-03-02T13:08:35;15.07;;;4.15;;
36373;SDS011;22399;51.346;12.372;2024-03-02T13:11:03;10.75;;;4.13;;
36373;SDS011;22399;51.346;12.372;2024-03-02T13:13:35;11.55;;;3.63;;
36373;SDS011;22399;51.346;12.372;2024-03-02T13:16:04;12.07;;;3.35;;
36373;SDS011;22399;51.346;12.372;2024-03-02T13:18:35;9.20;;;3.00;;
36373;SDS011;22399;51.346;12.372;2024-03-02T13:21:04;10.98;;;2.55;;
36373;SDS011;22399;51.346;12.372;2024-03-02T13:23:32;9.25;;;2.80;;
36373;SDS011;22399;51.346;12.372;2024-03-02T13:26:01;9.02;;;2.72;;
36373;SDS011;22399;51.346;12.372;2024-03-02T13:28:29;7.63;;;2.97;;
36373;SDS011;22399;51.346;12.372;2024-03-02T13:30:59;12.88;;;3.90;;
36373;SDS011;22399;51.346;12.372;2024-03-02T13:33:28;8.25;;;3.70;;
36373;SDS011;22399;51.346;12.372;2024-03-02T13:35:57;8.90;;;3.05;;
36373;SDS011;22399;51.346;12.372;2024-03-02T13:38:25;11.70;;;3.20;;
36373;SDS011;22399;51.346;12.372;2024-03-02T13:40:54;13.05;;;4.25;;
36373;SDS011;22399;51.346;12.372;2024-03-02T13:43:22;11.15;;;3.92;;
36373;SDS011;22399;51.346;12.372;2024-03-02T13:45:51;10.90;;;3.17;;
36373;SDS011;22399;51.346;12.372;2024-03-02T13:48:21;16.00;;;4.40;;
36373;SDS011;22399;51.346;12.372;2024-03-02T13:50:49;10.75;;;4.32;;
36373;SDS011;22399;51.346;12.372;2024-03-02T13:53:19;10.82;;;3.80;;
36373;SDS011;22399;51.346;12.372;2024-03-02T13:55:47;11.50;;;3.95;;
36373;SDS011;22399;51.346;12.372;2024-03-02T13:58:16;13.43;;;4.28;;
36373;SDS011;22399;51.346;12.372;2024-03-02T14:00:45;9.65;;;3.65;;
36373;SDS011;22399;51.346;12.372;2024-03-02T14:03:13;10.82;;;4.25;;
36373;SDS011;22399;51.346;12.372;2024-03-02T14:05:44;14.43;;;4.05;;
36373;SDS011;22399;51.346;12.372;2024-03-02T14:08:13;8.70;;;3.22;;
36373;SDS011;22399;51.346;12.372;2024-03-02T14:10:42;8.13;;;3.25;;
36373;SDS011;22399;51.346;12.372;2024-03-02T14:13:10;12.48;;;3.33;;
36373;SDS011;22399;51.346;12.372;2024-03-02T14:15:38;9.73;;;2.95;;
36373;SDS011;22399;51.346;12.372;2024-03-02T14:18:07;15.48;;;4.32;;
36373;SDS011;22399;51.346;12.372;2024-03-02T14:20:37;10.52;;;3.40;;
36373;SDS011;22399;51.346;12.372;2024-03-02T14:23:09;8.88;;;3.05;;
36373;SDS011;22399;51.346;12.372;2024-03-02T14:25:37;8.32;;;3.00;;
36373;SDS011;22399;51.346;12.372;2024-03-02T14:28:06;8.48;;;3.53;;
36373;SDS011;22399;51.346;12.372;2024-03-02T14:30:54;11.55;;;3.05;;
36373;SDS011;22399;51.346;12.372;2024-03-02T14:33:22;12.15;;;3.13;;
36373;SDS011;22399;51.346;12.372;2024-03-02T14:35:51;9.15;;;3.88;;